sensor_id;sensor_type;location;lat;lon;timestamp;P1;durP1;ratioP1;P2;durP2;ratioP2
3447;SDS011;1738;49.500;17.736;2023-08-24T00:00:19;11.40;;;7.33;;
3447;SDS011;1738;49.500;17.736;2023-08-24T00:02:45;8.90;;;6.90;;
3447;SDS011;1738;49.500;17.736;2023-08-24T00:05:11;12.60;;;7.97;;
3447;SDS011;1738;49.500;17.736;2023-08-24T00:07:37;12.37;;;9.20;;
3447;SDS011;1738;49.500;17.736;2023-08-24T00:10:03;10.07;;;7.90;;
3447;SDS011;1738;49.500;17.736;2023-08-24T00:12:29;21.53;;;9.13;;
3447;SDS011;1738;49.500;17.736;2023-08-24T00:14:54;16.03;;;8.47;;
3447;SDS011;1738;49.500;17.736;2023-08-24T00:17:20;11.70;;;8.95;;
3447;SDS011;1738;49.500;17.736;2023-08-24T00:19:46;12.53;;;8.77;;
3447;SDS011;1738;49.500;17.736;2023-08-24T00:22:12;12.23;;;9.70;;
3447;SDS011;1738;49.500;17.736;2023-08-24T00:24:38;13.77;;;9.30;;
3447;SDS011;1738;49.500;17.736;2023-08-24T00:27:04;13.23;;;9.70;;
3447;SDS011;1738;49.500;17.736;2023-08-24T00:29:29;15.57;;;9.93;;
3447;SDS011;1738;49.500;17.736;2023-08-24T00:31:55;13.17;;;10.20;;
3447;SDS011;1738;49.500;17.736;2023-08-24T00:34:21;10.40;;;8.27;;
3447;SDS011;1738;49.500;17.736;2023-08-24T00:36:47;17.08;;;9.77;;
3447;SDS011;1738;49.500;17.736;2023-08-24T00:39:13;9.40;;;7.97;;
3447;SDS011;1738;49.500;17.736;2023-08-24T00:41:39;11.47;;;8.40;;
3447;SDS011;1738;49.500;17.736;2023-08-24T00:44:05;12.90;;;9.20;;
3447;SDS011;1738;49.500;17.736;2023-08-24T00:46:30;14.53;;;9.97;;
3447;SDS011;1738;49.500;17.736;2023-08-24T00:48:56;17.87;;;11.00;;
3447;SDS011;1738;49.500;17.736;2023-08-24T00:51:23;13.53;;;9.33;;
3447;SDS011;1738;49.500;17.736;2023-08-24T00:53:48;15.43;;;10.23;;
3447;SDS011;1738;49.500;17.736;2023-08-24T00:56:14;16.80;;;10.70;;
3447;SDS011;1738;49.500;17.736;2023-08-24T00:58:40;17.53;;;9.40;;
3447;SDS011;1738;49.500;17.736;2023-08-24T01:01:05;12.00;;;8.70;;
3447;SDS011;1738;49.500;17.736;2023-08-24T01:03:31;11.50;;;8.47;;
3447;SDS011;1738;49.500;17.736;2023-08-24T01:05:57;11.17;;;8.90;;
3447;SDS011;1738;49.500;17.736;2023-08-24T01:08:23;11.47;;;9.70;;
3447;SDS011;1738;49.500;17.736;2023-08-24T01:10:54;17.73;;;13.07;;
3447;SDS011;1738;49.500;17.736;2023-08-24T01:13:21;26.60;;;13.47;;
3447;SDS011;1738;49.500;17.736;2023-08-24T01:15:47;21.40;;;14.33;;
3447;SDS011;1738;49.500;17.736;2023-08-24T01:18:11;20.40;;;14.00;;
3447;SDS011;1738;49.500;17.736;2023-08-24T01:20:37;22.35;;;14.98;;
3447;SDS011;1738;49.500;17.736;2023-08-24T01:23:14;18.57;;;12.00;;
3447;SDS011;1738;49.500;17.736;2023-08-24T01:25:37;16.20;;;12.40;;
3447;SDS011;1738;49.500;17.736;2023-08-24T01:28:00;16.83;;;13.33;;
3447;SDS011;1738;49.500;17.736;2023-08-24T01:30:26;19.30;;;13.67;;
3447;SDS011;1738;49.500;17.736;2023-08-24T01:32:52;17.73;;;12.77;;
3447;SDS011;1738;49.500;17.736;2023-08-24T01:35:18;16.90;;;12.60;;
3447;SDS011;1738;49.500;17.736;2023-08-24T01:37:44;14.50;;;12.77;;
3447;SDS011;1738;49.500;17.736;2023-08-24T01:40:26;15.53;;;13.70;;
3447;SDS011;1738;49.500;17.736;2023-08-24T01:42:52;20.17;;;16.57;;
3447;SDS011;1738;49.500;17.736;2023-08-24T01:45:17;22.53;;;14.90;;
3447;SDS011;1738;49.500;17.736;2023-08-24T01:47:43;25.13;;;16.80;;
3447;SDS011;1738;49.500;17.736;2023-08-24T01:50:09;21.27;;;17.83;;
3447;SDS011;1738;49.500;17.736;2023-08-24T01:52:35;25.20;;;16.23;;
3447;SDS011;1738;49.500;17.736;2023-08-24T01:55:00;23.27;;;16.40;;
3447;SDS011;1738;49.500;17.736;2023-08-24T01:57:26;29.77;;;18.20;;
3447;SDS011;1738;49.500;17.736;2023-08-24T01:59:52;30.23;;;18.92;;
3447;SDS011;1738;49.500;17.736;2023-08-24T02:02:18;23.57;;;16.90;;
3447;SDS011;1738;49.500;17.736;2023-08-24T02:04:44;24.60;;;19.07;;
3447;SDS011;1738;49.500;17.736;2023-08-24T02:07:10;27.90;;;19.40;;
3447;SDS011;1738;49.500;17.736;2023-08-24T02:09:36;27.07;;;20.57;;
3447;SDS011;1738;49.500;17.736;2023-08-24T02:12:01;28.43;;;21.33;;
3447;SDS011;1738;49.500;17.736;2023-08-24T02:14:27;28.67;;;22.00;;
3447;SDS011;1738;49.500;17.736;2023-08-24T02:16:53;26.00;;;23.10;;
3447;SDS011;1738;49.500;17.736;2023-08-24T02:19:19;30.10;;;21.47;;
3447;SDS011;1738;49.500;17.736;2023-08-24T02:21:45;32.77;;;22.80;;
3447;SDS011;1738;49.500;17.736;2023-08-24T02:24:11;33.22;;;21.92;;
3447;SDS011;1738;49.500;17.736;2023-08-24T02:26:37;23.75;;;19.40;;
3447;SDS011;1738;49.500;17.736;2023-08-24T02:29:03;25.00;;;21.17;;
3447;SDS011;1738;49.500;17.736;2023-08-24T02:31:28;30.23;;;21.47;;
3447;SDS011;1738;49.500;17.736;2023-08-24T02:33:54;27.80;;;22.27;;
3447;SDS011;1738;49.500;17.736;2023-08-24T02:36:20;29.90;;;23.00;;
3447;SDS011;1738;49.500;17.736;2023-08-24T02:38:46;30.00;;;22.83;;
3447;SDS011;1738;49.500;17.736;2023-08-24T02:41:12;32.43;;;21.80;;
3447;SDS011;1738;49.500;17.736;2023-08-24T02:43:38;29.97;;;22.07;;
3447;SDS011;1738;49.500;17.736;2023-08-24T02:46:04;26.00;;;22.90;;
3447;SDS011;1738;49.500;17.736;2023-08-24T02:48:30;25.93;;;20.73;;
3447;SDS011;1738;49.500;17.736;2023-08-24T02:50:57;25.03;;;20.93;;
3447;SDS011;1738;49.500;17.736;2023-08-24T02:53:21;31.40;;;20.53;;
3447;SDS011;1738;49.500;17.736;2023-08-24T02:55:47;23.67;;;17.73;;
3447;SDS011;1738;49.500;17.736;2023-08-24T02:58:13;22.23;;;18.20;;
3447;SDS011;1738;49.500;17.736;2023-08-24T03:00:39;25.80;;;20.73;;
3447;SDS011;1738;49.500;17.736;2023-08-24T03:03:04;25.43;;;18.27;;
3447;SDS011;1738;49.500;17.736;2023-08-24T03:05:31;19.00;;;17.03;;
3447;SDS011;1738;49.500;17.736;2023-08-24T03:07:57;18.13;;;16.23;;
3447;SDS011;1738;49.500;17.736;2023-08-24T03:10:23;19.10;;;17.10;;
3447;SDS011;1738;49.500;17.736;2023-08-24T03:12:48;22.73;;;16.52;;
3447;SDS011;1738;49.500;17.736;2023-08-24T03:15:14;20.40;;;17.40;;
3447;SDS011;1738;49.500;17.736;2023-08-24T03:17:40;19.23;;;16.23;;
3447;SDS011;1738;49.500;17.736;2023-08-24T03:20:06;23.67;;;17.40;;
3447;SDS011;1738;49.500;17.736;2023-08-24T03:22:32;24.03;;;17.80;;
3447;SDS011;1738;49.500;17.736;2023-08-24T03:24:58;72.03;;;16.30;;
3447;SDS011;1738;49.500;17.736;2023-08-24T03:27:24;15.13;;;13.63;;
3447;SDS011;1738;49.500;17.736;2023-08-24T03:29:51;18.87;;;15.57;;
3447;SDS011;1738;49.500;17.736;2023-08-24T03:32:16;17.17;;;14.50;;
3447;SDS011;1738;49.500;17.736;2023-08-24T03:34:42;14.93;;;13.40;;
3447;SDS011;1738;49.500;17.736;2023-08-24T03:37:07;24.27;;;13.23;;
3447;SDS011;1738;49.500;17.736;2023-08-24T03:39:36;27.20;;;13.93;;
3447;SDS011;1738;49.500;17.736;2023-08-24T03:41:59;86.00;;;14.18;;
3447;SDS011;1738;49.500;17.736;2023-08-24T03:44:25;15.23;;;13.27;;
3447;SDS011;1738;49.500;17.736;2023-08-24T03:46:51;14.70;;;13.20;;
3447;SDS011;1738;49.500;17.736;2023-08-24T03:49:17;14.60;;;13.05;;
3447;SDS011;1738;49.500;17.736;2023-08-24T03:51:43;16.80;;;15.00;;
3447;SDS011;1738;49.500;17.736;2023-08-24T03:54:08;17.02;;;13.10;;
3447;SDS011;1738;49.500;17.736;2023-08-24T03:56:34;110.93;;;14.90;;
3447;SDS011;1738;49.500;17.736;2023-08-24T03:59:00;16.33;;;11.13;;
3447;SDS011;1738;49.500;17.736;2023-08-24T04:01:26;17.80;;;12.60;;
3447;SDS011;1738;49.500;17.736;2023-08-24T04:03:52;15.63;;;14.03;;
3447;SDS011;1738;49.500;17.736;2023-08-24T04:06:18;15.67;;;13.93;;
3447;SDS011;1738;49.500;17.736;2023-08-24T04:08:44;19.60;;;14.38;;
3447;SDS011;1738;49.500;17.736;2023-08-24T04:11:11;13.48;;;12.07;;
3447;SDS011;1738;49.500;17.736;2023-08-24T04:13:36;21.40;;;12.30;;
3447;SDS011;1738;49.500;17.736;2023-08-24T04:16:02;17.87;;;12.33;;
3447;SDS011;1738;49.500;17.736;2023-08-24T04:18:28;13.10;;;11.70;;
3447;SDS011;1738;49.500;17.736;2023-08-24T04:20:54;12.63;;;11.30;;
3447;SDS011;1738;49.500;17.736;2023-08-24T04:23:23;14.10;;;12.67;;
3447;SDS011;1738;49.500;17.736;2023-08-24T04:25:46;19.60;;;12.10;;
3447;SDS011;1738;49.500;17.736;2023-08-24T04:28:12;14.93;;;13.53;;
3447;SDS011;1738;49.500;17.736;2023-08-24T04:30:37;14.07;;;12.07;;
3447;SDS011;1738;49.500;17.736;2023-08-24T04:33:03;13.90;;;12.43;;
3447;SDS011;1738;49.500;17.736;2023-08-24T04:35:29;22.03;;;12.60;;
3447;SDS011;1738;49.500;17.736;2023-08-24T04:37:55;12.82;;;11.63;;
3447;SDS011;1738;49.500;17.736;2023-08-24T04:40:21;13.93;;;12.43;;
3447;SDS011;1738;49.500;17.736;2023-08-24T04:42:47;12.83;;;11.57;;
3447;SDS011;1738;49.500;17.736;2023-08-24T04:45:13;14.10;;;12.63;;
3447;SDS011;1738;49.500;17.736;2023-08-24T04:47:39;14.90;;;13.30;;
3447;SDS011;1738;49.500;17.736;2023-08-24T04:50:05;14.67;;;13.23;;
3447;SDS011;1738;49.500;17.736;2023-08-24T04:52:31;14.50;;;12.80;;
3447;SDS011;1738;49.500;17.736;2023-08-24T04:54:57;20.10;;;17.97;;
3447;SDS011;1738;49.500;17.736;2023-08-24T04:57:23;23.77;;;16.33;;
3447;SDS011;1738;49.500;17.736;2023-08-24T04:59:49;21.57;;;16.53;;
3447;SDS011;1738;49.500;17.736;2023-08-24T05:02:15;26.23;;;19.37;;
3447;SDS011;1738;49.500;17.736;2023-08-24T05:04:41;24.17;;;20.50;;
3447;SDS011;1738;49.500;17.736;2023-08-24T05:07:06;25.67;;;21.90;;
3447;SDS011;1738;49.500;17.736;2023-08-24T05:09:32;24.80;;;19.40;;
3447;SDS011;1738;49.500;17.736;2023-08-24T05:11:58;29.03;;;21.53;;
3447;SDS011;1738;49.500;17.736;2023-08-24T05:14:24;23.30;;;20.53;;
3447;SDS011;1738;49.500;17.736;2023-08-24T05:16:50;21.60;;;18.97;;
3447;SDS011;1738;49.500;17.736;2023-08-24T05:19:16;26.37;;;20.20;;
3447;SDS011;1738;49.500;17.736;2023-08-24T05:21:42;24.20;;;20.03;;
3447;SDS011;1738;49.500;17.736;2023-08-24T05:24:07;29.40;;;21.20;;
3447;SDS011;1738;49.500;17.736;2023-08-24T05:26:33;25.67;;;20.10;;
3447;SDS011;1738;49.500;17.736;2023-08-24T05:28:59;21.57;;;19.37;;
3447;SDS011;1738;49.500;17.736;2023-08-24T05:31:25;25.60;;;18.47;;
3447;SDS011;1738;49.500;17.736;2023-08-24T05:33:51;22.00;;;18.80;;
3447;SDS011;1738;49.500;17.736;2023-08-24T05:36:17;26.70;;;21.57;;
3447;SDS011;1738;49.500;17.736;2023-08-24T05:38:42;23.77;;;18.75;;
3447;SDS011;1738;49.500;17.736;2023-08-24T05:41:08;25.03;;;18.30;;
3447;SDS011;1738;49.500;17.736;2023-08-24T05:43:34;21.60;;;19.30;;
3447;SDS011;1738;49.500;17.736;2023-08-24T05:46:00;24.37;;;18.73;;
3447;SDS011;1738;49.500;17.736;2023-08-24T05:48:26;22.57;;;19.80;;
3447;SDS011;1738;49.500;17.736;2023-08-24T05:50:52;24.83;;;19.97;;
3447;SDS011;1738;49.500;17.736;2023-08-24T05:53:18;20.90;;;17.20;;
3447;SDS011;1738;49.500;17.736;2023-08-24T05:55:43;19.60;;;17.60;;
3447;SDS011;1738;49.500;17.736;2023-08-24T05:58:09;20.57;;;16.80;;
3447;SDS011;1738;49.500;17.736;2023-08-24T06:00:35;31.13;;;18.47;;
3447;SDS011;1738;49.500;17.736;2023-08-24T06:03:01;20.20;;;16.87;;
3447;SDS011;1738;49.500;17.736;2023-08-24T06:05:27;21.40;;;16.40;;
3447;SDS011;1738;49.500;17.736;2023-08-24T06:07:53;19.00;;;16.17;;
3447;SDS011;1738;49.500;17.736;2023-08-24T06:10:19;18.37;;;14.37;;
3447;SDS011;1738;49.500;17.736;2023-08-24T06:12:44;19.77;;;14.20;;
3447;SDS011;1738;49.500;17.736;2023-08-24T06:15:10;19.60;;;14.47;;
3447;SDS011;1738;49.500;17.736;2023-08-24T06:17:36;18.10;;;15.57;;
3447;SDS011;1738;49.500;17.736;2023-08-24T06:20:03;17.40;;;15.60;;
3447;SDS011;1738;49.500;17.736;2023-08-24T06:22:29;16.03;;;14.43;;
3447;SDS011;1738;49.500;17.736;2023-08-24T06:24:54;16.50;;;14.80;;
3447;SDS011;1738;49.500;17.736;2023-08-24T06:27:20;21.20;;;13.97;;
3447;SDS011;1738;49.500;17.736;2023-08-24T06:29:46;17.27;;;14.60;;
3447;SDS011;1738;49.500;17.736;2023-08-24T06:32:12;21.97;;;15.47;;
3447;SDS011;1738;49.500;17.736;2023-08-24T06:34:38;17.77;;;13.17;;
3447;SDS011;1738;49.500;17.736;2023-08-24T06:37:04;16.70;;;13.77;;
3447;SDS011;1738;49.500;17.736;2023-08-24T06:39:30;15.93;;;14.37;;
3447;SDS011;1738;49.500;17.736;2023-08-24T06:41:55;13.97;;;12.50;;
3447;SDS011;1738;49.500;17.736;2023-08-24T06:44:21;18.53;;;13.83;;
3447;SDS011;1738;49.500;17.736;2023-08-24T06:46:47;14.00;;;12.03;;
3447;SDS011;1738;49.500;17.736;2023-08-24T06:49:13;15.23;;;13.73;;
3447;SDS011;1738;49.500;17.736;2023-08-24T06:51:39;20.30;;;13.37;;
3447;SDS011;1738;49.500;17.736;2023-08-24T06:54:05;15.50;;;14.00;;
3447;SDS011;1738;49.500;17.736;2023-08-24T06:56:30;18.67;;;12.83;;
3447;SDS011;1738;49.500;17.736;2023-08-24T06:58:56;12.90;;;11.43;;
3447;SDS011;1738;49.500;17.736;2023-08-24T07:01:22;14.33;;;12.37;;
3447;SDS011;1738;49.500;17.736;2023-08-24T07:03:48;17.07;;;11.23;;
3447;SDS011;1738;49.500;17.736;2023-08-24T07:06:14;14.40;;;10.07;;
3447;SDS011;1738;49.500;17.736;2023-08-24T07:08:40;12.83;;;10.40;;
3447;SDS011;1738;49.500;17.736;2023-08-24T07:11:06;14.47;;;9.60;;
3447;SDS011;1738;49.500;17.736;2023-08-24T07:13:32;11.03;;;9.33;;
3447;SDS011;1738;49.500;17.736;2023-08-24T07:15:57;13.97;;;9.77;;
3447;SDS011;1738;49.500;17.736;2023-08-24T07:18:23;10.87;;;8.20;;
3447;SDS011;1738;49.500;17.736;2023-08-24T07:20:49;10.57;;;8.37;;
3447;SDS011;1738;49.500;17.736;2023-08-24T07:23:15;10.43;;;8.80;;
3447;SDS011;1738;49.500;17.736;2023-08-24T07:25:41;12.80;;;8.27;;
3447;SDS011;1738;49.500;17.736;2023-08-24T07:28:07;11.73;;;8.50;;
3447;SDS011;1738;49.500;17.736;2023-08-24T07:30:33;12.00;;;7.97;;
3447;SDS011;1738;49.500;17.736;2023-08-24T07:32:58;9.30;;;8.30;;
3447;SDS011;1738;49.500;17.736;2023-08-24T07:35:24;8.60;;;7.33;;
3447;SDS011;1738;49.500;17.736;2023-08-24T07:37:50;8.40;;;7.50;;
3447;SDS011;1738;49.500;17.736;2023-08-24T07:40:16;7.93;;;7.13;;
3447;SDS011;1738;49.500;17.736;2023-08-24T07:42:47;8.47;;;6.77;;
3447;SDS011;1738;49.500;17.736;2023-08-24T07:45:13;19.60;;;7.30;;
3447;SDS011;1738;49.500;17.736;2023-08-24T07:47:38;8.93;;;6.10;;
3447;SDS011;1738;49.500;17.736;2023-08-24T07:50:04;8.23;;;6.03;;
3447;SDS011;1738;49.500;17.736;2023-08-24T07:52:30;7.13;;;5.83;;
3447;SDS011;1738;49.500;17.736;2023-08-24T07:54:56;7.00;;;4.97;;
3447;SDS011;1738;49.500;17.736;2023-08-24T07:57:22;7.30;;;6.03;;
3447;SDS011;1738;49.500;17.736;2023-08-24T07:59:48;7.60;;;5.50;;
3447;SDS011;1738;49.500;17.736;2023-08-24T08:02:14;6.87;;;5.27;;
3447;SDS011;1738;49.500;17.736;2023-08-24T08:04:40;9.10;;;5.00;;
3447;SDS011;1738;49.500;17.736;2023-08-24T08:07:06;9.33;;;4.90;;
3447;SDS011;1738;49.500;17.736;2023-08-24T08:09:32;7.53;;;4.30;;
3447;SDS011;1738;49.500;17.736;2023-08-24T08:11:58;7.03;;;5.10;;
3447;SDS011;1738;49.500;17.736;2023-08-24T08:14:25;9.10;;;6.20;;
3447;SDS011;1738;49.500;17.736;2023-08-24T08:16:50;8.63;;;5.43;;
3447;SDS011;1738;49.500;17.736;2023-08-24T08:19:16;8.43;;;6.07;;
3447;SDS011;1738;49.500;17.736;2023-08-24T08:21:42;11.07;;;5.67;;
3447;SDS011;1738;49.500;17.736;2023-08-24T08:24:07;9.47;;;4.90;;
3447;SDS011;1738;49.500;17.736;2023-08-24T08:26:33;6.50;;;5.00;;
3447;SDS011;1738;49.500;17.736;2023-08-24T08:28:59;4.57;;;4.10;;
3447;SDS011;1738;49.500;17.736;2023-08-24T08:31:25;6.90;;;4.77;;
3447;SDS011;1738;49.500;17.736;2023-08-24T08:33:51;11.02;;;4.93;;
3447;SDS011;1738;49.500;17.736;2023-08-24T08:36:17;6.03;;;4.50;;
3447;SDS011;1738;49.500;17.736;2023-08-24T08:38:42;9.50;;;3.90;;
3447;SDS011;1738;49.500;17.736;2023-08-24T08:41:08;7.10;;;4.93;;
3447;SDS011;1738;49.500;17.736;2023-08-24T08:43:34;5.67;;;4.03;;
3447;SDS011;1738;49.500;17.736;2023-08-24T08:46:00;8.03;;;4.50;;
3447;SDS011;1738;49.500;17.736;2023-08-24T08:48:26;5.40;;;4.30;;
3447;SDS011;1738;49.500;17.736;2023-08-24T08:50:52;7.87;;;4.30;;
3447;SDS011;1738;49.500;17.736;2023-08-24T08:53:21;5.70;;;3.93;;
3447;SDS011;1738;49.500;17.736;2023-08-24T08:55:44;8.23;;;4.40;;
3447;SDS011;1738;49.500;17.736;2023-08-24T08:58:09;7.82;;;4.87;;
3447;SDS011;1738;49.500;17.736;2023-08-24T09:00:35;5.80;;;4.43;;
3447;SDS011;1738;49.500;17.736;2023-08-24T09:03:01;6.70;;;4.20;;
3447;SDS011;1738;49.500;17.736;2023-08-24T09:05:27;7.57;;;4.60;;
3447;SDS011;1738;49.500;17.736;2023-08-24T09:07:53;7.37;;;4.20;;
3447;SDS011;1738;49.500;17.736;2023-08-24T09:10:18;10.70;;;5.00;;
3447;SDS011;1738;49.500;17.736;2023-08-24T09:12:44;7.47;;;3.87;;
3447;SDS011;1738;49.500;17.736;2023-08-24T09:15:10;8.70;;;4.43;;
3447;SDS011;1738;49.500;17.736;2023-08-24T09:17:36;8.53;;;4.40;;
3447;SDS011;1738;49.500;17.736;2023-08-24T09:20:06;11.40;;;4.17;;
3447;SDS011;1738;49.500;17.736;2023-08-24T09:22:28;7.20;;;5.27;;
3447;SDS011;1738;49.500;17.736;2023-08-24T09:24:54;7.30;;;4.50;;
3447;SDS011;1738;49.500;17.736;2023-08-24T09:27:20;5.97;;;4.20;;
3447;SDS011;1738;49.500;17.736;2023-08-24T09:29:49;10.97;;;4.40;;
3447;SDS011;1738;49.500;17.736;2023-08-24T09:32:14;7.10;;;4.77;;
3447;SDS011;1738;49.500;17.736;2023-08-24T09:34:40;12.30;;;4.90;;
3447;SDS011;1738;49.500;17.736;2023-08-24T09:37:12;7.70;;;4.50;;
3447;SDS011;1738;49.500;17.736;2023-08-24T09:39:31;10.73;;;4.50;;
3447;SDS011;1738;49.500;17.736;2023-08-24T09:41:59;7.93;;;4.37;;
3447;SDS011;1738;49.500;17.736;2023-08-24T09:44:23;5.47;;;4.70;;
3447;SDS011;1738;49.500;17.736;2023-08-24T09:46:49;6.53;;;4.27;;
3447;SDS011;1738;49.500;17.736;2023-08-24T09:49:15;8.88;;;4.25;;
3447;SDS011;1738;49.500;17.736;2023-08-24T09:51:41;10.30;;;4.57;;
3447;SDS011;1738;49.500;17.736;2023-08-24T09:54:08;8.70;;;4.30;;
3447;SDS011;1738;49.500;17.736;2023-08-24T09:56:34;7.87;;;4.10;;
3447;SDS011;1738;49.500;17.736;2023-08-24T09:59:00;6.70;;;4.80;;
3447;SDS011;1738;49.500;17.736;2023-08-24T10:01:25;10.40;;;3.93;;
3447;SDS011;1738;49.500;17.736;2023-08-24T10:03:51;4.80;;;3.90;;
3447;SDS011;1738;49.500;17.736;2023-08-24T10:06:19;5.97;;;4.40;;
3447;SDS011;1738;49.500;17.736;2023-08-24T10:08:43;7.23;;;4.67;;
3447;SDS011;1738;49.500;17.736;2023-08-24T10:11:09;7.50;;;4.80;;
3447;SDS011;1738;49.500;17.736;2023-08-24T10:13:37;6.50;;;4.13;;
3447;SDS011;1738;49.500;17.736;2023-08-24T10:16:02;6.90;;;4.33;;
3447;SDS011;1738;49.500;17.736;2023-08-24T10:18:27;13.67;;;5.30;;
3447;SDS011;1738;49.500;17.736;2023-08-24T10:20:53;5.37;;;3.87;;
3447;SDS011;1738;49.500;17.736;2023-08-24T10:23:19;8.57;;;4.00;;
3447;SDS011;1738;49.500;17.736;2023-08-24T10:25:46;7.90;;;4.17;;
3447;SDS011;1738;49.500;17.736;2023-08-24T10:28:11;6.27;;;4.20;;
3447;SDS011;1738;49.500;17.736;2023-08-24T10:30:36;9.47;;;4.20;;
3447;SDS011;1738;49.500;17.736;2023-08-24T10:33:03;4.70;;;4.17;;
3447;SDS011;1738;49.500;17.736;2023-08-24T10:35:29;6.90;;;4.67;;
3447;SDS011;1738;49.500;17.736;2023-08-24T10:37:55;7.60;;;4.27;;
3447;SDS011;1738;49.500;17.736;2023-08-24T10:42:52;6.60;;;4.00;;
3447;SDS011;1738;49.500;17.736;2023-08-24T10:45:18;6.63;;;4.17;;
3447;SDS011;1738;49.500;17.736;2023-08-24T10:47:44;6.73;;;4.30;;
3447;SDS011;1738;49.500;17.736;2023-08-24T10:50:10;5.23;;;3.73;;
3447;SDS011;1738;49.500;17.736;2023-08-24T10:52:36;5.77;;;4.07;;
3447;SDS011;1738;49.500;17.736;2023-08-24T10:55:02;6.13;;;4.30;;
3447;SDS011;1738;49.500;17.736;2023-08-24T10:57:34;7.73;;;4.33;;
3447;SDS011;1738;49.500;17.736;2023-08-24T10:59:58;6.03;;;3.77;;
3447;SDS011;1738;49.500;17.736;2023-08-24T11:02:24;10.33;;;4.67;;
3447;SDS011;1738;49.500;17.736;2023-08-24T11:07:21;4.73;;;3.80;;
3447;SDS011;1738;49.500;17.736;2023-08-24T11:09:47;8.83;;;4.17;;
3447;SDS011;1738;49.500;17.736;2023-08-24T11:12:13;11.63;;;4.87;;
3447;SDS011;1738;49.500;17.736;2023-08-24T11:17:18;7.07;;;3.67;;
3447;SDS011;1738;49.500;17.736;2023-08-24T11:19:49;6.17;;;4.30;;
3447;SDS011;1738;49.500;17.736;2023-08-24T11:22:16;8.10;;;4.00;;
3447;SDS011;1738;49.500;17.736;2023-08-24T11:24:40;7.63;;;4.13;;
3447;SDS011;1738;49.500;17.736;2023-08-24T11:27:07;8.17;;;3.80;;
3447;SDS011;1738;49.500;17.736;2023-08-24T11:29:32;6.60;;;4.18;;
3447;SDS011;1738;49.500;17.736;2023-08-24T11:31:58;5.50;;;3.90;;
3447;SDS011;1738;49.500;17.736;2023-08-24T11:34:24;5.73;;;3.93;;
3447;SDS011;1738;49.500;17.736;2023-08-24T11:36:50;8.60;;;4.60;;
3447;SDS011;1738;49.500;17.736;2023-08-24T11:39:16;7.57;;;4.10;;
3447;SDS011;1738;49.500;17.736;2023-08-24T11:41:41;6.43;;;4.07;;
3447;SDS011;1738;49.500;17.736;2023-08-24T11:44:07;7.43;;;4.40;;
3447;SDS011;1738;49.500;17.736;2023-08-24T11:46:33;7.87;;;4.67;;
3447;SDS011;1738;49.500;17.736;2023-08-24T11:48:59;5.50;;;3.40;;
3447;SDS011;1738;49.500;17.736;2023-08-24T11:51:25;7.37;;;4.70;;
3447;SDS011;1738;49.500;17.736;2023-08-24T11:53:50;7.27;;;4.40;;
3447;SDS011;1738;49.500;17.736;2023-08-24T11:56:16;5.83;;;3.77;;
3447;SDS011;1738;49.500;17.736;2023-08-24T11:58:43;8.10;;;4.00;;
3447;SDS011;1738;49.500;17.736;2023-08-24T12:01:08;5.67;;;4.43;;
3447;SDS011;1738;49.500;17.736;2023-08-24T12:03:35;5.30;;;3.40;;
3447;SDS011;1738;49.500;17.736;2023-08-24T12:06:01;6.03;;;3.50;;
3447;SDS011;1738;49.500;17.736;2023-08-24T12:08:26;5.47;;;4.10;;
3447;SDS011;1738;49.500;17.736;2023-08-24T12:10:52;6.23;;;4.10;;
3447;SDS011;1738;49.500;17.736;2023-08-24T12:13:18;6.40;;;3.80;;
3447;SDS011;1738;49.500;17.736;2023-08-24T12:15:44;5.33;;;3.60;;
3447;SDS011;1738;49.500;17.736;2023-08-24T12:18:10;9.00;;;4.13;;
3447;SDS011;1738;49.500;17.736;2023-08-24T12:20:35;5.17;;;4.00;;
3447;SDS011;1738;49.500;17.736;2023-08-24T12:23:01;6.17;;;4.03;;
3447;SDS011;1738;49.500;17.736;2023-08-24T12:25:27;5.37;;;3.23;;
3447;SDS011;1738;49.500;17.736;2023-08-24T12:28:08;6.60;;;3.57;;
3447;SDS011;1738;49.500;17.736;2023-08-24T12:30:19;4.13;;;3.53;;
3447;SDS011;1738;49.500;17.736;2023-08-24T12:32:45;5.20;;;3.70;;
3447;SDS011;1738;49.500;17.736;2023-08-24T12:35:11;6.07;;;4.00;;
3447;SDS011;1738;49.500;17.736;2023-08-24T12:37:36;7.33;;;4.27;;
3447;SDS011;1738;49.500;17.736;2023-08-24T12:40:03;9.70;;;4.13;;
3447;SDS011;1738;49.500;17.736;2023-08-24T12:42:28;5.90;;;3.90;;
3447;SDS011;1738;49.500;17.736;2023-08-24T12:44:54;7.10;;;4.13;;
3447;SDS011;1738;49.500;17.736;2023-08-24T12:47:20;5.40;;;3.87;;
3447;SDS011;1738;49.500;17.736;2023-08-24T12:49:46;7.90;;;4.10;;
3447;SDS011;1738;49.500;17.736;2023-08-24T12:52:12;7.33;;;4.10;;
3447;SDS011;1738;49.500;17.736;2023-08-24T12:54:38;7.10;;;4.07;;
3447;SDS011;1738;49.500;17.736;2023-08-24T12:57:03;11.53;;;3.73;;
3447;SDS011;1738;49.500;17.736;2023-08-24T12:59:29;5.70;;;3.70;;
3447;SDS011;1738;49.500;17.736;2023-08-24T13:01:55;5.03;;;3.83;;
3447;SDS011;1738;49.500;17.736;2023-08-24T13:04:21;5.20;;;3.70;;
3447;SDS011;1738;49.500;17.736;2023-08-24T13:06:47;6.10;;;4.10;;
3447;SDS011;1738;49.500;17.736;2023-08-24T13:09:13;6.10;;;4.47;;
3447;SDS011;1738;49.500;17.736;2023-08-24T13:11:38;6.27;;;4.23;;
3447;SDS011;1738;49.500;17.736;2023-08-24T13:14:04;9.93;;;4.50;;
3447;SDS011;1738;49.500;17.736;2023-08-24T13:16:30;7.03;;;4.57;;
3447;SDS011;1738;49.500;17.736;2023-08-24T13:18:56;6.47;;;3.90;;
3447;SDS011;1738;49.500;17.736;2023-08-24T13:21:22;4.80;;;4.20;;
3447;SDS011;1738;49.500;17.736;2023-08-24T13:23:48;5.50;;;4.63;;
3447;SDS011;1738;49.500;17.736;2023-08-24T13:26:17;7.43;;;4.10;;
3447;SDS011;1738;49.500;17.736;2023-08-24T13:28:42;5.07;;;3.40;;
3447;SDS011;1738;49.500;17.736;2023-08-24T13:31:08;4.13;;;3.43;;
3447;SDS011;1738;49.500;17.736;2023-08-24T13:33:34;7.30;;;4.10;;
3447;SDS011;1738;49.500;17.736;2023-08-24T13:36:00;4.60;;;3.40;;
3447;SDS011;1738;49.500;17.736;2023-08-24T13:38:26;7.17;;;4.13;;
3447;SDS011;1738;49.500;17.736;2023-08-24T13:40:51;10.70;;;5.00;;
3447;SDS011;1738;49.500;17.736;2023-08-24T13:43:17;7.83;;;4.40;;
3447;SDS011;1738;49.500;17.736;2023-08-24T13:45:43;9.63;;;4.80;;
3447;SDS011;1738;49.500;17.736;2023-08-24T13:48:09;7.90;;;4.70;;
3447;SDS011;1738;49.500;17.736;2023-08-24T13:50:35;8.37;;;4.97;;
3447;SDS011;1738;49.500;17.736;2023-08-24T13:53:01;9.73;;;4.13;;
3447;SDS011;1738;49.500;17.736;2023-08-24T13:55:26;9.87;;;5.37;;
3447;SDS011;1738;49.500;17.736;2023-08-24T13:57:52;10.70;;;5.13;;
3447;SDS011;1738;49.500;17.736;2023-08-24T14:00:18;6.13;;;4.10;;
3447;SDS011;1738;49.500;17.736;2023-08-24T14:02:44;53.20;;;18.83;;
3447;SDS011;1738;49.500;17.736;2023-08-24T14:05:10;4.97;;;3.80;;
3447;SDS011;1738;49.500;17.736;2023-08-24T14:07:36;7.13;;;3.97;;
3447;SDS011;1738;49.500;17.736;2023-08-24T14:10:02;26.73;;;8.80;;
3447;SDS011;1738;49.500;17.736;2023-08-24T14:12:28;18.63;;;8.27;;
3447;SDS011;1738;49.500;17.736;2023-08-24T14:14:54;9.10;;;4.80;;
3447;SDS011;1738;49.500;17.736;2023-08-24T14:17:19;5.30;;;4.33;;
3447;SDS011;1738;49.500;17.736;2023-08-24T14:19:45;11.45;;;5.75;;
3447;SDS011;1738;49.500;17.736;2023-08-24T14:22:11;9.07;;;5.20;;
3447;SDS011;1738;49.500;17.736;2023-08-24T14:24:37;6.17;;;3.40;;
3447;SDS011;1738;49.500;17.736;2023-08-24T14:27:03;10.43;;;4.03;;
3447;SDS011;1738;49.500;17.736;2023-08-24T14:29:29;6.10;;;4.20;;
3447;SDS011;1738;49.500;17.736;2023-08-24T14:31:55;4.83;;;4.17;;
3447;SDS011;1738;49.500;17.736;2023-08-24T14:34:20;5.53;;;3.67;;
3447;SDS011;1738;49.500;17.736;2023-08-24T14:36:46;9.67;;;4.37;;
3447;SDS011;1738;49.500;17.736;2023-08-24T14:39:12;5.20;;;4.33;;
3447;SDS011;1738;49.500;17.736;2023-08-24T14:41:38;6.50;;;4.00;;
3447;SDS011;1738;49.500;17.736;2023-08-24T14:44:04;8.90;;;4.27;;
3447;SDS011;1738;49.500;17.736;2023-08-24T14:46:30;6.77;;;3.90;;